Time;durP1;ratioP1;P1;durP2;ratioP2;P2;SDS_P1;SDS_P2;PMS_P1;PMS_P2;Temp;Humidity;BMP_temperature;BMP_pressure;BME280_temperature;BME280_humidity;BME280_pressure;Samples;Min_cycle;Max_cycle;Signal;HPM_P1;HPM_P2
2022/05/02 00:01:17;;;;;;;13.38;10.43;;;;;;;12.48;66.60;100823.69;4091950;28;20518;-55
2022/05/02 00:03:20;;;;;;;13.77;10.57;;;;;;;12.43;66.87;100825.41;4098720;29;20047;-54
2022/05/02 00:05:23;;;;;;;15.68;10.60;;;;;;;12.44;66.75;100829.75;4098351;28;20054;-54
2022/05/02 00:07:28;;;;;;;11.32;8.88;;;;;;;12.35;67.50;100827.91;4099285;29;20074;-56
2022/05/02 00:09:31;;;;;;;;;;;;;;;12.12;67.85;100834.53;4112142;28;20035;-55
2022/05/02 00:11:33;;;;;;;12.30;8.75;;;;;;;12.14;68.23;100830.22;4096950;28;19926;-54
2022/05/02 00:13:36;;;;;;;10.60;8.75;;;;;;;12.11;67.93;100832.78;4096999;28;20511;-54
2022/05/02 00:15:39;;;;;;;13.68;10.65;;;;;;;12.15;68.47;100838.06;4098122;28;20043;-56
2022/05/02 00:17:57;;;;;;;13.00;10.10;;;;;;;12.17;67.68;100820.72;4093056;29;20393;-55
2022/05/02 00:20:00;;;;;;;12.60;10.20;;;;;;;12.12;68.23;100816.28;4103049;28;20039;-54
2022/05/02 00:22:03;;;;;;;14.10;10.68;;;;;;;12.11;68.21;100825.84;4092657;29;20113;-54
2022/05/02 00:24:08;;;;;;;17.48;10.90;;;;;;;12.13;68.60;100815.44;4098912;28;20046;-54
2022/05/02 00:26:11;;;;;;;14.98;11.25;;;;;;;12.12;68.53;100818.88;4113616;28;20039;-53
2022/05/02 00:28:15;;;;;;;14.88;11.95;;;;;;;12.13;68.30;100815.44;4114844;28;20043;-54
2022/05/02 00:30:19;;;;;;;14.27;11.20;;;;;;;12.09;68.18;100814.53;4092046;28;20067;-56
2022/05/02 00:32:22;;;;;;;13.95;11.20;;;;;;;12.11;67.69;100819.78;4099340;28;20070;-56
2022/05/02 00:34:24;;;;;;;13.32;10.93;;;;;;;12.07;67.69;100815.38;4098988;28;20046;-56
2022/05/02 00:36:27;;;;;;;12.18;10.25;;;;;;;12.07;68.21;100810.16;4099035;28;20058;-55
2022/05/02 00:38:30;;;;;;;13.68;10.70;;;;;;;12.05;67.98;100812.75;4097574;28;20039;-55
2022/05/02 00:40:34;;;;;;;14.00;10.82;;;;;;;12.05;68.59;100813.59;4095867;28;20035;-55
2022/05/02 00:42:38;;;;;;;12.23;11.00;;;;;;;12.03;68.30;100810.13;4097721;29;20488;-54
2022/05/02 00:44:42;;;;;;;16.30;11.65;;;;;;;12.05;68.22;100807.53;4096872;28;20039;-53
2022/05/02 00:46:46;;;;;;;14.77;11.48;;;;;;;12.02;67.84;100807.50;4097863;28;20039;-55
2022/05/02 00:48:49;;;;;;;14.23;11.48;;;;;;;12.00;67.65;100804.88;4096557;29;20142;-55
2022/05/02 00:50:52;;;;;;;15.40;11.30;;;;;;;12.05;67.34;100804.91;4097267;28;20039;-56
2022/05/02 00:52:55;;;;;;;14.15;12.20;;;;;;;12.05;67.14;100810.13;4095030;28;20049;-54
2022/05/02 00:55:00;;;;;;;17.80;11.65;;;;;;;12.02;67.94;100810.09;4110372;28;20106;-51
2022/05/02 00:57:06;;;;;;;13.57;11.60;;;;;;;12.01;67.60;100801.38;4097803;28;20071;-55
2022/05/02 00:59:13;;;;;;;14.52;11.88;;;;;;;11.99;67.91;100803.09;4099023;28;20043;-56
2022/05/02 01:01:15;;;;;;;15.38;11.32;;;;;;;11.97;68.12;100798.72;4097340;28;20053;-56
2022/05/02 01:03:37;;;;;;;15.50;12.30;;;;;;;11.95;68.52;100803.03;4097635;28;20046;-55
2022/05/02 01:07:59;;;;;;;13.90;11.00;;;;;;;11.93;68.75;100803.03;4094208;28;20047;-55
2022/05/02 01:10:03;;;;;;;14.15;10.15;;;;;;;11.91;68.77;100802.06;4093218;28;20138;-56
2022/05/02 01:12:09;;;;;;;11.25;9.15;;;;;;;11.86;68.98;100801.16;4098399;29;20047;-55
2022/05/02 01:14:12;;;;;;;18.20;11.60;;;;;;;11.81;68.97;100800.19;4097677;28;20399;-54
2022/05/02 01:16:18;;;;;;;15.43;11.70;;;;;;;11.79;69.47;100797.56;4096860;29;20039;-55
2022/05/02 01:18:21;;;;;;;15.18;9.90;;;;;;;11.76;68.87;100799.25;4089173;29;20748;-55
2022/05/02 01:20:25;;;;;;;16.85;11.05;;;;;;;11.77;68.69;100791.47;4097343;28;20122;-55
2022/05/02 01:22:33;;;;;;;11.80;9.13;;;;;;;11.74;69.12;100790.53;4097751;28;20125;-55
2022/05/02 01:24:37;;;;;;;18.23;12.75;;;;;;;11.76;69.10;100789.72;4098092;28;20040;-55
2022/05/02 01:26:40;;;;;;;17.45;11.40;;;;;;;11.72;68.76;100800.94;4095094;28;20470;-55
2022/05/02 01:28:45;;;;;;;14.02;11.18;;;;;;;11.68;69.02;100800.03;4097552;28;20480;-54
2022/05/02 01:30:47;;;;;;;14.57;9.85;;;;;;;11.65;69.30;100799.97;4095885;28;20039;-55
2022/05/02 01:32:50;;;;;;;15.55;9.98;;;;;;;11.59;69.29;100793.78;4098284;28;20039;-54
2022/05/02 01:34:53;;;;;;;14.05;10.73;;;;;;;11.53;70.25;100792.84;4098918;28;20043;-54
2022/05/02 01:36:57;;;;;;;16.58;10.35;;;;;;;11.52;69.68;100785.00;4094792;28;20035;-54
2022/05/02 01:39:00;;;;;;;18.08;12.30;;;;;;;11.53;69.45;100791.97;4100271;28;20047;-54
2022/05/02 01:41:03;;;;;;;12.18;9.27;;;;;;;11.57;69.38;100790.28;4115882;28;20461;-55
2022/05/02 01:43:07;;;;;;;12.85;10.50;;;;;;;11.50;69.33;100797.13;4101581;28;20058;-55
2022/05/02 01:45:10;;;;;;;14.23;11.30;;;;;;;11.50;69.73;100791.91;4101458;29;20043;-54
2022/05/02 01:47:13;;;;;;;13.35;10.27;;;;;;;11.44;69.87;100789.22;4101402;28;20442;-55
2022/05/02 01:49:16;;;;;;;14.80;11.80;;;;;;;11.46;69.50;100788.41;4098967;28;20087;-54
2022/05/02 01:51:19;;;;;;;16.10;11.80;;;;;;;11.44;69.24;100791.81;4100062;28;20050;-56
2022/05/02 01:53:23;;;;;;;14.68;11.80;;;;;;;11.44;69.52;100789.22;4102159;29;20565;-54
2022/05/02 01:55:25;;;;;;;13.35;11.55;;;;;;;11.41;69.48;100784.84;4101242;28;20043;-56
2022/05/02 01:57:31;;;;;;;12.95;11.13;;;;;;;11.39;69.49;100793.47;4102229;28;20043;-53
2022/05/02 01:59:34;;;;;;;13.75;12.00;;;;;;;11.36;70.01;100799.53;4100588;28;20053;-54
2022/05/02 02:01:37;;;;;;;11.20;9.82;;;;;;;11.33;69.73;100791.63;4100249;28;20347;-53
2022/05/02 02:03:40;;;;;;;15.48;11.60;;;;;;;11.30;69.96;100795.09;4100164;29;20086;-54
2022/05/02 02:05:51;;;;;;;16.55;11.68;;;;;;;11.29;69.73;100785.50;4101439;28;20051;-53
2022/05/02 02:07:57;;;;;;;17.05;14.15;;;;;;;11.28;69.83;100793.31;4099591;29;20498;-52
2022/05/02 02:10:01;;;;;;;13.10;10.88;;;;;;;11.30;69.31;100786.38;4099225;28;20045;-55
2022/05/02 02:12:04;;;;;;;13.95;11.35;;;;;;;11.30;69.14;100786.38;4099908;28;20046;-55
2022/05/02 02:14:07;;;;;;;15.65;11.68;;;;;;;11.31;69.67;100788.16;4101419;28;20282;-55
2022/05/02 02:16:10;;;;;;;14.15;11.25;;;;;;;11.34;69.87;100785.59;4101012;28;20502;-56
2022/05/02 02:18:14;;;;;;;13.15;10.80;;;;;;;11.37;69.12;100785.63;4099216;28;20331;-55
2022/05/02 02:20:17;;;;;;;14.02;11.63;;;;;;;11.38;69.79;100776.97;4098787;29;20043;-56
2022/05/02 02:22:19;;;;;;;20.13;13.13;;;;;;;11.34;69.75;100783.84;4093906;29;20045;-54
2022/05/02 02:24:22;;;;;;;13.52;11.45;;;;;;;11.33;69.54;100784.72;4115025;28;20039;-55
2022/05/02 02:26:27;;;;;;;17.95;13.65;;;;;;;11.33;68.79;100779.53;4116452;28;20050;-54
2022/05/02 02:28:30;;;;;;;14.95;12.85;;;;;;;11.31;69.19;100783.81;4096885;28;20086;-55
2022/05/02 02:30:33;;;;;;;21.17;13.02;;;;;;;11.36;68.50;100773.50;4095320;29;20042;-55
2022/05/02 02:32:36;;;;;;;19.05;13.13;;;;;;;11.32;68.44;100771.69;4100733;28;20035;-54
2022/05/02 02:34:39;;;;;;;15.27;11.93;;;;;;;11.28;68.78;100778.56;4100534;28;20047;-55
2022/05/02 02:36:42;;;;;;;15.63;9.95;;;;;;;11.23;69.39;100767.22;4111072;28;20042;-55
2022/05/02 02:38:45;;;;;;;14.38;11.45;;;;;;;11.24;69.20;100773.28;4099219;28;20043;-54
2022/05/02 02:40:48;;;;;;;14.55;10.55;;;;;;;11.18;69.34;100772.34;4115097;28;20129;-54
2022/05/02 02:42:52;;;;;;;17.15;11.57;;;;;;;11.18;69.52;100769.75;4097586;28;20039;-54
2022/05/02 02:44:55;;;;;;;15.43;10.98;;;;;;;11.09;70.02;100764.34;4096540;28;20498;-53
2022/05/02 02:46:57;;;;;;;15.73;11.32;;;;;;;11.10;70.09;100768.72;4095815;28;20043;-54
2022/05/02 02:49:00;;;;;;;17.33;12.88;;;;;;;11.10;70.09;100760.91;4098754;28;20045;-54
2022/05/02 02:51:03;;;;;;;19.85;12.18;;;;;;;11.09;70.19;100758.28;4100864;29;20035;-54
2022/05/02 02:53:06;;;;;;;14.63;10.43;;;;;;;11.08;69.93;100761.72;4100562;28;20502;-55
2022/05/02 02:55:10;;;;;;;15.30;12.52;;;;;;;11.05;70.40;100761.69;4096021;28;20039;-55
2022/05/02 02:57:13;;;;;;;17.33;12.38;;;;;;;11.04;69.80;100758.22;4098979;28;20090;-54
2022/05/02 02:59:17;;;;;;;14.27;12.25;;;;;;;11.05;69.42;100756.47;4115037;28;20121;-55
2022/05/02 03:01:20;;;;;;;12.45;11.15;;;;;;;11.03;69.71;100761.66;4091980;28;20130;-54
2022/05/02 03:03:23;;;;;;;14.48;11.98;;;;;;;11.05;69.33;100757.34;4100432;28;20050;-54
2022/05/02 03:07:46;;;;;;;16.73;10.98;;;;;;;11.02;69.91;100749.50;4099474;28;20062;-54
2022/05/02 03:09:49;;;;;;;13.07;10.25;;;;;;;10.97;70.14;100753.75;4100229;28;20046;-53
2022/05/02 03:11:52;;;;;;;18.00;12.27;;;;;;;10.97;70.40;100752.03;4094900;28;20035;-54
2022/05/02 03:13:55;;;;;;;12.18;9.98;;;;;;;10.95;69.96;100745.94;4110220;28;20041;-55
2022/05/02 03:15:59;;;;;;;13.15;10.60;;;;;;;10.92;69.82;100752.78;4095925;28;20035;-54
2022/05/02 03:18:02;;;;;;;13.13;9.55;;;;;;;10.87;70.37;100749.25;4100245;28;20441;-54
2022/05/02 03:20:06;;;;;;;15.23;10.32;;;;;;;10.86;70.30;100744.88;4098885;29;20039;-55
2022/05/02 03:22:09;;;;;;;15.47;11.00;;;;;;;10.70;70.63;100738.53;4095506;28;20134;-54
2022/05/02 03:24:12;;;;;;;14.52;10.65;;;;;;;10.65;70.68;100749.72;4098985;28;20647;-52
2022/05/02 03:26:15;;;;;;;15.80;10.52;;;;;;;10.69;71.29;100742.88;4099955;28;20058;-55
2022/05/02 03:28:17;;;;;;;14.40;11.52;;;;;;;10.72;70.82;100745.50;4100720;29;20043;-54
2022/05/02 03:30:21;;;;;;;14.63;11.57;;;;;;;10.77;70.60;100743.00;4098253;29;20530;-55
2022/05/02 03:32:30;;;;;;;13.20;11.13;;;;;;;10.78;70.79;100742.16;4098734;28;20434;-54
2022/05/02 03:34:33;;;;;;;16.00;11.50;;;;;;;10.72;70.87;100737.72;4094963;28;20106;-55
2022/05/02 03:36:36;;;;;;;13.30;10.52;;;;;;;10.72;70.45;100737.72;4100010;28;20126;-55
2022/05/02 03:38:39;;;;;;;14.23;11.18;;;;;;;10.65;71.04;100741.06;4100363;28;20680;-56
2022/05/02 03:40:42;;;;;;;13.90;10.68;;;;;;;10.52;71.21;100739.94;4095361;29;20442;-55
2022/05/02 03:42:44;;;;;;;13.27;10.02;;;;;;;10.35;71.47;100738.75;4099672;29;20042;-55
2022/05/02 03:44:47;;;;;;;16.98;10.30;;;;;;;10.24;71.33;100741.97;4097543;28;20062;-55
2022/05/02 03:46:51;;;;;;;11.82;10.27;;;;;;;10.28;71.22;100745.53;4100368;29;20091;-55
2022/05/02 03:48:55;;;;;;;15.80;11.50;;;;;;;10.28;71.35;100746.38;4098784;29;20039;-53
2022/05/02 03:50:58;;;;;;;14.38;11.35;;;;;;;10.30;71.17;100741.22;4099333;29;20045;-54
2022/05/02 03:53:01;;;;;;;14.07;10.13;;;;;;;10.33;71.16;100745.59;4099024;28;20071;-54
2022/05/02 03:55:04;;;;;;;15.38;11.38;;;;;;;10.39;71.37;100737.97;4096844;28;20039;-54
2022/05/02 03:57:07;;;;;;;16.35;11.23;;;;;;;10.43;71.35;100743.25;4099591;28;20410;-54
2022/05/02 03:59:10;;;;;;;12.77;10.05;;;;;;;10.49;70.58;100739.88;4098423;28;20597;-54
2022/05/02 04:01:13;;;;;;;14.60;9.43;;;;;;;10.48;70.31;100741.63;4098653;28;20074;-53
2022/05/02 04:03:16;;;;;;;13.40;10.25;;;;;;;10.49;70.64;100739.88;4113410;28;20053;-53
2022/05/02 04:05:21;;;;;;;11.73;8.90;;;;;;;10.50;70.29;100738.16;4111516;28;20043;-56
2022/05/02 04:07:24;;;;;;;13.07;10.70;;;;;;;10.50;70.59;100738.16;4097759;28;20054;-54
2022/05/02 04:09:27;;;;;;;14.35;10.25;;;;;;;10.52;70.47;100742.53;4099362;28;20047;-53
2022/05/02 04:11:30;;;;;;;13.38;10.95;;;;;;;10.60;70.47;100745.28;4099067;28;20126;-55
2022/05/02 04:13:33;;;;;;;14.10;9.95;;;;;;;10.61;69.79;100745.28;4099220;29;20043;-54
2022/05/02 04:15:37;;;;;;;13.43;10.60;;;;;;;10.59;69.69;100743.53;4112984;28;20093;-55
2022/05/02 04:17:40;;;;;;;16.50;10.98;;;;;;;10.57;69.77;100745.22;4098370;29;20039;-53
2022/05/02 04:19:43;;;;;;;10.55;9.38;;;;;;;10.57;70.36;100747.81;4113836;28;20122;-54
2022/05/02 04:21:47;;;;;;;14.00;8.93;;;;;;;10.58;70.45;100746.97;4097512;28;20039;-54
2022/05/02 04:23:51;;;;;;;15.38;11.18;;;;;;;10.51;70.21;100747.72;4098557;28;20110;-53
2022/05/02 04:25:55;;;;;;;11.93;9.07;;;;;;;10.48;70.61;100745.91;4112785;28;20041;-54
2022/05/02 04:27:57;;;;;;;12.10;8.90;;;;;;;10.46;70.79;100745.91;4099536;28;20069;-55
2022/05/02 04:30:00;;;;;;;14.70;9.10;;;;;;;10.41;70.77;100742.34;4098145;28;20094;-53
2022/05/02 04:32:04;;;;;;;13.25;9.65;;;;;;;10.38;71.15;100741.38;4098009;29;20505;-55
2022/05/02 04:34:07;;;;;;;16.98;10.18;;;;;;;10.31;70.33;100737.78;4111339;28;20133;-54
2022/05/02 04:36:09;;;;;;;14.82;9.80;;;;;;;10.20;71.36;100732.34;4098837;28;20045;-56
2022/05/02 04:38:14;;;;;;;12.38;9.80;;;;;;;10.22;71.08;100737.56;4098895;29;20039;-54
2022/05/02 04:40:17;;;;;;;;;;;;;;;10.05;71.09;100738.13;4099086;28;20039;-54
2022/05/02 04:42:20;;;;;;;14.18;10.10;;;;;;;10.11;71.05;100735.63;4093384;28;20422;-54
2022/05/02 04:44:23;;;;;;;13.82;10.23;;;;;;;10.25;70.76;100743.72;4099267;28;20039;-55
2022/05/02 04:46:26;;;;;;;15.05;10.93;;;;;;;10.32;71.00;100742.13;4113272;28;20346;-55
2022/05/02 04:48:29;;;;;;;12.32;9.00;;;;;;;10.37;70.43;100739.66;4097012;28;20130;-56
2022/05/02 04:50:32;;;;;;;11.60;9.50;;;;;;;10.33;69.92;100738.69;4097452;29;20050;-54
2022/05/02 04:52:35;;;;;;;13.55;9.57;;;;;;;10.30;69.80;100749.88;4095693;28;20043;-53
2022/05/02 04:54:39;;;;;;;12.38;9.75;;;;;;;10.34;69.70;100753.47;4098936;28;20409;-54
2022/05/02 04:56:42;;;;;;;14.35;9.52;;;;;;;10.36;70.43;100750.91;4098921;28;20038;-55
2022/05/02 04:58:45;;;;;;;12.70;9.32;;;;;;;10.39;69.66;100749.22;4096753;28;20045;-55
2022/05/02 05:00:48;;;;;;;11.68;8.90;;;;;;;10.41;69.96;100747.53;4098306;28;20414;-55
2022/05/02 05:02:51;;;;;;;15.63;10.40;;;;;;;10.46;69.73;100756.28;4098994;28;20035;-54
2022/05/02 05:04:59;;;;;;;13.20;9.70;;;;;;;10.51;69.67;100751.16;4098712;29;20039;-55
2022/05/02 05:07:03;;;;;;;14.40;9.57;;;;;;;10.58;69.52;100749.56;4097442;28;20039;-54
2022/05/02 05:09:06;;;;;;;15.70;10.93;;;;;;;10.61;69.84;100753.09;4093876;28;20039;-55
2022/05/02 05:11:28;;;;;;;17.63;9.95;;;;;;;10.62;69.76;100754.00;4111040;28;20043;-54
2022/05/02 05:13:40;;;;;;;15.50;9.50;;;;;;;10.66;70.28;100753.22;4099312;28;20051;-56
2022/05/02 05:16:21;;;;;;;13.90;10.38;;;;;;;10.68;70.47;100754.09;4095617;29;20070;-54
2022/05/02 05:18:35;;;;;;;14.48;11.07;;;;;;;10.72;69.44;100750.72;4092879;28;20506;-53
2022/05/02 05:20:51;;;;;;;14.77;11.13;;;;;;;10.94;68.11;100753.72;4097152;29;20134;-55
2022/05/02 05:23:18;;;;;;;13.18;10.27;;;;;;;10.94;67.90;100748.50;4097874;29;20127;-54
2022/05/02 05:25:35;;;;;;;14.95;11.05;;;;;;;10.86;68.35;100745.75;4076685;29;20079;-55
2022/05/02 05:27:48;;;;;;;15.05;10.05;;;;;;;10.89;69.25;100747.53;4097286;28;20482;-54
2022/05/02 05:30:02;;;;;;;13.40;10.45;;;;;;;11.01;67.62;100750.38;4096003;29;20437;-60
2022/05/02 05:32:19;;;;;;;15.18;10.98;;;;;;;11.08;67.48;100747.03;4094358;28;20051;-67
2022/05/02 05:34:37;;;;;;;13.50;9.88;;;;;;;11.01;68.09;100745.16;4095914;28;20036;-63
2022/05/02 05:36:55;;;;;;;14.90;11.30;;;;;;;11.08;67.61;100752.22;4097418;29;20597;-71
2022/05/02 05:39:04;;;;;;;15.85;10.30;;;;;;;10.98;67.93;100763.28;4114044;28;20046;-54
2022/05/02 05:41:24;;;;;;;16.65;10.32;;;;;;;11.05;68.91;100759.94;4096583;29;20525;-54
2022/05/02 05:43:42;;;;;;;16.63;12.02;;;;;;;11.13;67.87;100755.75;4096207;29;20521;-54
2022/05/02 05:46:03;;;;;;;13.60;10.60;;;;;;;11.14;67.55;100762.72;4111297;28;20190;-54
2022/05/02 05:48:13;;;;;;;18.60;12.13;;;;;;;11.18;67.80;100756.72;4093952;28;20083;-55
2022/05/02 05:50:22;;;;;;;15.10;11.02;;;;;;;11.20;67.97;100756.75;4097033;29;20058;-53
2022/05/02 05:52:34;;;;;;;15.75;11.73;;;;;;;11.21;68.04;100760.22;4098101;29;20039;-53
2022/05/02 05:54:44;;;;;;;20.70;11.48;;;;;;;11.20;67.63;100753.25;4097439;29;20147;-54
2022/05/02 05:56:56;;;;;;;12.55;9.07;;;;;;;11.18;68.22;100758.44;4095273;29;20059;-54
2022/05/02 05:59:07;;;;;;;14.82;9.65;;;;;;;11.18;68.64;100756.72;4111311;28;20418;-55
2022/05/02 06:01:13;;;;;;;16.92;10.32;;;;;;;11.24;68.22;100755.06;4097535;28;20039;-54
2022/05/02 06:03:16;;;;;;;17.05;10.95;;;;;;;11.26;68.83;100758.59;4113844;28;20042;-56
2022/05/02 06:05:19;;;;;;;22.42;10.95;;;;;;;11.33;67.96;100757.78;4087724;29;20039;-54
2022/05/02 06:07:22;;;;;;;19.23;11.90;;;;;;;11.39;68.15;100757.91;4096875;28;20037;-53
2022/05/02 06:09:28;;;;;;;15.30;11.45;;;;;;;11.55;67.54;100752.94;4096193;28;20062;-56
2022/05/02 06:11:34;;;;;;;15.85;11.10;;;;;;;11.55;67.55;100755.53;4096204;28;20454;-54
2022/05/02 06:13:39;;;;;;;17.65;12.23;;;;;;;11.58;67.60;100753.88;4096221;28;20123;-54
2022/05/02 06:18:29;;;;;;;18.45;11.13;;;;;;;11.66;66.54;100747.03;4079233;28;20422;-55
2022/05/02 06:20:34;;;;;;;20.17;12.73;;;;;;;11.67;66.07;100747.91;4098701;28;20041;-54
2022/05/02 06:22:40;;;;;;;17.45;12.48;;;;;;;11.63;66.11;100746.13;4103049;28;20047;-53
2022/05/02 06:24:46;;;;;;;17.85;12.77;;;;;;;11.65;67.24;100744.41;4107647;28;20074;-54
2022/05/02 06:26:52;;;;;;;15.77;11.75;;;;;;;11.74;66.63;100743.66;4100142;28;20039;-54
2022/05/02 06:28:55;;;;;;;20.55;13.38;;;;;;;11.68;66.20;100742.72;4116478;28;20057;-52
2022/05/02 06:31:03;;;;;;;22.27;11.93;;;;;;;11.74;66.32;100741.03;4109692;28;20127;-53
2022/05/02 06:33:11;;;;;;;19.63;11.65;;;;;;;11.68;66.95;100747.03;4101739;28;20126;-54
2022/05/02 06:35:14;;;;;;;19.30;13.38;;;;;;;11.87;66.58;100745.56;4100036;29;20047;-54
2022/05/02 06:37:31;;;;;;;18.55;12.10;;;;;;;11.86;66.76;100749.03;4101407;29;20043;-54
2022/05/02 06:39:51;;;;;;;17.17;12.60;;;;;;;11.88;66.08;100748.22;4085698;29;20051;-55
2022/05/02 06:42:09;;;;;;;15.05;12.75;;;;;;;11.97;66.71;100763.13;4085900;29;20441;-54
2022/05/02 06:44:18;;;;;;;21.60;11.38;;;;;;;11.97;66.72;100762.25;4087087;28;20056;-55
2022/05/02 06:46:29;;;;;;;17.75;12.10;;;;;;;12.03;67.08;100762.31;4090288;29;20049;-54
2022/05/02 06:48:37;;;;;;;19.88;13.13;;;;;;;12.15;66.35;100757.28;4100144;29;20094;-55
2022/05/02 06:50:42;;;;;;;19.17;13.75;;;;;;;12.29;65.46;100759.16;4101364;28;20057;-55
2022/05/02 06:52:58;;;;;;;20.65;11.40;;;;;;;12.34;65.07;100750.53;4101706;29;20082;-54
2022/05/02 06:55:12;;;;;;;14.98;11.45;;;;;;;12.31;65.40;100758.34;4115494;28;20246;-53
2022/05/02 06:57:29;;;;;;;21.27;10.77;;;;;;;12.19;65.20;100758.16;4101574;29;20035;-55
2022/05/02 06:59:40;;;;;;;15.10;12.65;;;;;;;12.26;64.84;100754.78;4101242;29;20473;-54
2022/05/02 07:01:49;;;;;;;15.35;12.40;;;;;;;12.33;65.41;100755.75;4101381;29;20039;-54
2022/05/02 07:04:20;;;;;;;19.00;11.23;;;;;;;12.34;65.34;100753.16;4096996;29;20051;-54
2022/05/02 07:06:41;;;;;;;16.88;11.98;;;;;;;12.46;65.31;100752.41;4094455;28;20058;-54
2022/05/02 07:08:51;;;;;;;14.80;11.13;;;;;;;12.36;65.77;100753.16;4101208;29;20086;-54
2022/05/02 07:10:59;;;;;;;14.80;11.30;;;;;;;12.50;65.60;100753.31;4099566;29;20130;-54
2022/05/02 07:13:18;;;;;;;15.68;12.35;;;;;;;12.54;64.78;100753.38;4101216;28;20046;-53
2022/05/02 07:15:24;;;;;;;14.77;10.40;;;;;;;12.47;65.73;100748.06;4100605;28;20127;-55
2022/05/02 07:17:45;;;;;;;15.68;12.63;;;;;;;12.50;65.31;100749.00;4093512;29;20035;-56
2022/05/02 07:19:54;;;;;;;19.98;12.45;;;;;;;12.57;65.36;100753.41;4100651;28;20055;-56
2022/05/02 07:21:59;;;;;;;16.25;11.32;;;;;;;12.61;65.62;100745.63;4101183;28;20079;-54
2022/05/02 07:24:13;;;;;;;19.38;12.27;;;;;;;12.73;65.29;100749.25;4098894;28;20054;-56
2022/05/02 07:26:18;;;;;;;17.52;12.88;;;;;;;12.88;64.59;100748.50;4100633;28;20043;-55
2022/05/02 07:28:33;;;;;;;16.00;11.73;;;;;;;13.00;64.26;100750.34;4100210;28;20039;-55
2022/05/02 07:30:36;;;;;;;;;;;;;;;12.86;64.56;100744.97;4085184;29;20042;-54
2022/05/02 07:32:40;;;;;;;20.35;13.00;;;;;;;13.13;64.12;100742.59;4084367;29;19929;-55
2022/05/02 07:34:44;;;;;;;21.63;12.63;;;;;;;13.26;63.36;100739.25;4112125;28;20555;-56
2022/05/02 07:36:51;;;;;;;17.15;12.95;;;;;;;13.23;63.34;100740.09;4100943;28;20416;-54
2022/05/02 07:38:59;;;;;;;19.25;12.95;;;;;;;13.11;63.86;100747.81;4100713;29;20045;-55
2022/05/02 07:43:25;;;;;;;18.02;13.40;;;;;;;13.17;63.95;100747.88;4085184;29;20036;-53
2022/05/02 07:45:30;;;;;;;14.55;12.40;;;;;;;13.38;63.71;100746.34;4084893;29;20043;-54
2022/05/02 07:47:33;;;;;;;;;;;;;;;13.51;62.50;100745.56;4085102;29;20142;-54
2022/05/02 07:49:40;;;;;;;17.67;12.32;;;;;;;13.46;62.50;100742.03;4097073;29;19969;-56
2022/05/02 07:51:46;;;;;;;21.95;13.88;;;;;;;13.39;63.40;100748.06;4109975;28;20047;-54
2022/05/02 07:53:51;;;;;;;21.42;13.43;;;;;;;13.63;62.14;100742.16;4099290;28;20047;-56
2022/05/02 07:55:56;;;;;;;21.60;14.07;;;;;;;13.63;61.66;100751.72;4099297;29;20133;-55
2022/05/02 07:57:59;;;;;;;22.65;13.85;;;;;;;13.71;62.40;100750.91;4084625;29;20044;-55
2022/05/02 08:00:03;;;;;;;16.95;12.35;;;;;;;13.87;61.26;100746.66;4084292;29;20407;-55
2022/05/02 08:02:16;;;;;;;21.48;13.25;;;;;;;14.05;60.42;100750.22;4084855;29;20056;-55
2022/05/02 08:04:19;;;;;;;17.73;14.18;;;;;;;14.00;60.08;100746.69;4094870;29;20090;-54
2022/05/02 08:06:47;;;;;;;18.73;13.32;;;;;;;13.99;61.07;100750.16;4100263;29;20047;-55
2022/05/02 08:08:58;;;;;;;32.50;12.32;;;;;;;13.86;61.51;100750.13;4108119;28;20467;-55
2022/05/02 08:11:12;;;;;;;19.13;12.45;;;;;;;13.91;61.66;100743.16;4084146;29;20103;-56
2022/05/02 08:13:37;;;;;;;20.30;12.25;;;;;;;13.99;61.90;100744.94;4086909;29;20074;-55
2022/05/02 08:15:48;;;;;;;20.33;12.70;;;;;;;14.25;61.00;100745.94;4098540;28;20380;-55
2022/05/02 08:18:28;;;;;;;19.20;12.63;;;;;;;14.24;61.22;100741.56;4099694;29;20035;-55
2022/05/02 08:20:40;;;;;;;16.20;11.48;;;;;;;14.29;60.96;100742.47;4097877;29;20439;-55
2022/05/02 08:27:52;;;;;;;15.25;13.32;;;;;;;14.46;60.54;100746.88;4084209;29;20040;-54
2022/05/02 08:30:10;;;;;;;18.65;13.00;;;;;;;14.58;60.16;100744.28;4083696;29;20042;-54
2022/05/02 08:32:22;;;;;;;21.58;13.55;;;;;;;14.74;60.36;100741.75;4084269;29;20044;-54
2022/05/02 08:34:35;;;;;;;14.70;11.48;;;;;;;14.78;60.11;100743.50;4095023;29;20050;-55
2022/05/02 08:36:48;;;;;;;17.58;12.32;;;;;;;14.76;59.78;100739.97;4100038;29;20110;-55
2022/05/02 08:38:56;;;;;;;20.23;12.85;;;;;;;14.84;59.97;100738.25;4099886;28;20147;-53
2022/05/02 08:41:33;;;;;;;18.08;11.80;;;;;;;14.80;60.60;100741.75;4099739;28;20051;-53
2022/05/02 08:44:21;;;;;;;21.67;14.27;;;;;;;14.97;59.93;100742.63;4093778;29;20111;-54
2022/05/02 08:46:59;;;;;;;13.23;11.68;;;;;;;14.82;58.67;100734.75;4083513;29;20066;-54
2022/05/02 08:49:37;;;;;;;18.15;12.50;;;;;;;14.90;58.79;100735.66;4083847;29;20451;-55
2022/05/02 08:52:06;;;;;;;19.67;12.18;;;;;;;14.89;58.28;100739.13;4085597;29;20130;-53
2022/05/02 08:54:37;;;;;;;17.92;12.48;;;;;;;15.08;58.29;100731.28;4099527;29;20054;-59
2022/05/02 08:56:58;;;;;;;15.13;12.60;;;;;;;15.20;58.15;100726.06;4099673;29;20067;-60
2022/05/02 08:59:21;;;;;;;15.82;12.30;;;;;;;15.31;57.15;100719.03;4098346;29;20491;-60
2022/05/02 09:01:52;;;;;;;15.88;12.15;;;;;;;15.27;57.00;100719.06;4098700;28;20425;-60
2022/05/02 09:04:35;;;;;;;12.73;9.23;;;;;;;15.34;57.92;100719.03;4083874;29;20123;-60
2022/05/02 09:07:02;;;;;;;20.70;12.57;;;;;;;15.64;56.73;100717.25;4066312;29;20056;-60
2022/05/02 09:09:52;;;;;;;24.20;16.13;;;;;;;15.79;56.77;100710.25;4097771;29;20067;-60
2022/05/02 09:12:24;;;;;;;14.43;10.25;;;;;;;15.84;55.84;100712.00;4055868;29;20056;-59
2022/05/02 09:14:52;;;;;;;16.42;11.43;;;;;;;15.77;56.72;100711.97;4065793;29;20047;-60
2022/05/02 09:17:37;;;;;;;16.73;9.13;;;;;;;15.86;56.95;100706.75;4082077;28;20158;-60
2022/05/02 09:20:07;;;;;;;16.85;11.82;;;;;;;16.11;56.57;100706.63;4097828;29;20050;-60
2022/05/02 09:22:52;;;;;;;18.50;13.98;;;;;;;16.39;54.13;100709.97;4112599;28;20045;-60
2022/05/02 09:25:04;;;;;;;13.07;10.07;;;;;;;16.22;54.03;100704.81;4113834;28;20070;-60
2022/05/02 09:27:21;;;;;;;15.43;11.80;;;;;;;16.28;53.39;100703.91;4111878;28;20066;-60
2022/05/02 09:30:05;;;;;;;15.65;12.50;;;;;;;16.47;53.26;100710.81;4098943;29;20042;-60
2022/05/02 09:32:13;;;;;;;18.13;13.77;;;;;;;16.40;52.78;100702.09;4098573;29;20047;-60
2022/05/02 09:34:18;;;;;;;18.30;11.50;;;;;;;16.47;53.53;100709.94;4095975;28;20399;-60
2022/05/02 09:36:29;;;;;;;14.02;12.18;;;;;;;16.64;51.76;100694.94;4113140;28;20142;-60
2022/05/02 09:38:47;;;;;;;13.35;10.25;;;;;;;16.53;53.02;100699.41;4098994;28;20071;-61
2022/05/02 09:40:58;;;;;;;15.52;11.57;;;;;;;16.81;50.62;100693.97;4099032;28;20035;-60
2022/05/02 09:43:15;;;;;;;15.15;11.75;;;;;;;16.74;49.05;100694.00;4098083;29;20035;-60
2022/05/02 09:50:57;;;;;;;14.95;9.50;;;;;;;16.92;50.07;100681.63;4098738;29;20498;-61
2022/05/02 09:53:23;;;;;;;16.50;10.65;;;;;;;17.03;49.84;100679.78;4097840;29;20043;-60
2022/05/02 09:58:32;;;;;;;11.20;9.30;;;;;;;17.31;48.25;100674.28;4099830;29;20051;-60
2022/05/02 10:01:07;;;;;;;15.35;9.85;;;;;;;17.33;47.07;100675.09;4098956;29;20138;-61
2022/05/02 10:03:25;;;;;;;17.55;10.88;;;;;;;17.31;47.05;100666.38;4102078;28;20107;-61
2022/05/02 10:05:40;;;;;;;11.85;8.40;;;;;;;17.16;49.00;100663.94;4102102;28;20402;-60
2022/05/02 10:07:53;;;;;;;13.82;10.18;;;;;;;17.33;48.42;100661.13;4101891;28;20047;-60
2022/05/02 10:10:04;;;;;;;12.27;9.32;;;;;;;17.44;49.04;100657.47;4101296;28;20046;-60
2022/05/02 10:12:16;;;;;;;12.80;10.32;;;;;;;17.63;47.50;100658.13;4101712;28;20097;-61